Terminal Aerodrome Forecast
Issued by NWS

Home | Current Version | Previous Version | Text Only | Print | Product List | Glossary On
Versions: 1 2 3 4 5 6 7 8 9 10 11 12 13 14 15 16 17 18 19 20 21 22 23 24 25 26 27 28 29 30 31 32 33 34 35 36 37 38 39 40 41 42
000
FTUS45 KSLC 100554 AAA
TAFSGU
TAF AMD
KSGU 100554Z 1006/1106 VRB05KT P6SM SCT080 BKN120
     FM101900 25011KT P6SM VCSH SCT080 BKN100
     FM110200 VRB05KT P6SM SCT080 BKN120
      AMD NOT SKED=

USA.gov is the U.S. government's official web portal to all federal, state and local government web resources and services.